Time;durP1;ratioP1;P1;durP2;ratioP2;P2;SDS_P1;SDS_P2;PMS_P1;PMS_P2;Temp;Humidity;BMP_temperature;BMP_pressure;BME280_temperature;BME280_humidity;BME280_pressure;Samples;Min_cycle;Max_cycle;Signal;HPM_P1;HPM_P2
2022/07/14 00:01:24;;;;;;;4.20;1.05;;;23.30;75.20;;;;;;5068840;28;20025;-77
2022/07/14 00:03:49;;;;;;;1.73;0.95;;;23.30;74.40;;;;;;5043052;28;20082;-77
2022/07/14 00:06:16;;;;;;;3.05;1.00;;;23.20;73.60;;;;;;5056697;28;20040;-78
2022/07/14 00:08:45;;;;;;;2.97;1.27;;;23.10;73.90;;;;;;5063213;28;20409;-77
2022/07/14 00:11:11;;;;;;;1.77;0.80;;;23.10;72.90;;;;;;5063263;28;20379;-80
2022/07/14 00:13:36;;;;;;;1.30;0.75;;;23.10;72.70;;;;;;5046580;28;20037;-78
2022/07/14 00:16:02;;;;;;;1.85;0.80;;;23.00;72.20;;;;;;5068539;28;20032;-78
2022/07/14 00:18:28;;;;;;;2.63;0.80;;;22.80;72.00;;;;;;5046006;28;20033;-78
2022/07/14 00:20:54;;;;;;;1.52;0.98;;;22.80;72.00;;;;;;5054098;28;20051;-75
2022/07/14 00:23:24;;;;;;;2.42;0.65;;;22.80;71.80;;;;;;5061607;28;20045;-76
2022/07/14 00:25:50;;;;;;;0.93;0.70;;;22.80;71.80;;;;;;5058656;28;20099;-81
2022/07/14 00:28:15;;;;;;;1.58;0.77;;;22.90;71.90;;;;;;5060799;28;20025;-78
2022/07/14 00:30:41;;;;;;;1.20;0.70;;;22.90;71.90;;;;;;5065581;28;20126;-77
2022/07/14 00:33:06;;;;;;;2.92;0.80;;;22.90;71.90;;;;;;5064960;28;20082;-78
2022/07/14 00:35:32;;;;;;;1.67;0.80;;;22.90;72.00;;;;;;5086776;28;20064;-77
2022/07/14 00:37:57;;;;;;;6.28;0.90;;;22.90;71.90;;;;;;5066689;28;20598;-77
2022/07/14 00:40:23;;;;;;;3.15;1.00;;;22.80;72.00;;;;;;5048172;28;20504;-79
2022/07/14 00:42:49;;;;;;;1.38;0.70;;;22.80;72.10;;;;;;5054137;28;20041;-78
2022/07/14 00:45:17;;;;;;;1.65;0.70;;;22.80;72.30;;;;;;5058235;28;20428;-77
2022/07/14 00:47:44;;;;;;;1.60;1.00;;;22.80;73.30;;;;;;5065674;28;20170;-77
2022/07/14 00:50:11;;;;;;;1.38;0.70;;;22.80;72.70;;;;;;5052832;28;20025;-76
2022/07/14 00:52:37;;;;;;;2.75;0.90;;;22.70;72.90;;;;;;5051163;28;20032;-78
2022/07/14 00:55:03;;;;;;;1.95;0.90;;;22.80;73.30;;;;;;5052674;28;20492;-77
2022/07/14 00:57:29;;;;;;;2.63;0.85;;;22.70;73.40;;;;;;5064558;28;20064;-80
2022/07/14 00:59:56;;;;;;;1.98;0.90;;;22.70;73.70;;;;;;5061839;28;20029;-77
2022/07/14 01:02:22;;;;;;;1.40;0.88;;;22.70;74.00;;;;;;5050326;28;20398;-77
2022/07/14 01:04:49;;;;;;;4.63;1.48;;;22.70;74.30;;;;;;5054777;28;20085;-78
2022/07/14 01:07:16;;;;;;;1.48;1.10;;;22.60;75.00;;;;;;5069071;28;20068;-77
2022/07/14 01:09:42;;;;;;;1.13;0.95;;;22.60;75.60;;;;;;5066277;28;20033;-78
2022/07/14 01:12:09;;;;;;;2.58;1.20;;;22.40;76.80;;;;;;5049679;28;20031;-78
2022/07/14 01:14:36;;;;;;;1.70;1.10;;;22.40;77.00;;;;;;5046941;28;20032;-77
2022/07/14 01:17:02;;;;;;;1.38;1.15;;;22.30;77.60;;;;;;5066102;28;20037;-76
2022/07/14 01:19:27;;;;;;;3.25;1.63;;;22.30;78.00;;;;;;5071364;28;20048;-78
2022/07/14 01:21:54;;;;;;;2.05;1.23;;;22.20;77.90;;;;;;5065880;28;20987;-78
2022/07/14 01:24:20;;;;;;;4.20;1.48;;;22.20;78.20;;;;;;5058099;28;20103;-80
2022/07/14 01:26:46;;;;;;;2.90;1.30;;;22.10;78.30;;;;;;5060936;28;20048;-77
2022/07/14 01:29:11;;;;;;;1.98;1.23;;;22.10;78.60;;;;;;5049751;28;20051;-77
2022/07/14 01:31:37;;;;;;;1.70;1.25;;;22.00;78.60;;;;;;5067002;28;20470;-80
2022/07/14 01:34:02;;;;;;;2.03;1.65;;;22.00;78.70;;;;;;5056432;28;20107;-76
2022/07/14 01:36:28;;;;;;;2.17;1.20;;;22.00;78.80;;;;;;5047549;28;20505;-78
2022/07/14 01:38:54;;;;;;;1.88;1.27;;;22.00;79.30;;;;;;5069289;28;20487;-77
2022/07/14 01:41:20;;;;;;;2.60;1.70;;;21.90;79.00;;;;;;5055001;28;20036;-78
2022/07/14 01:43:46;;;;;;;3.28;1.77;;;21.80;79.30;;;;;;5061543;28;20116;-78
2022/07/14 01:46:12;;;;;;;2.85;1.38;;;21.90;79.50;;;;;;5068209;28;20055;-78
2022/07/14 01:48:37;;;;;;;3.10;1.60;;;21.90;79.50;;;;;;5070720;28;20066;-78
2022/07/14 01:51:03;;;;;;;10.60;1.85;;;21.90;79.60;;;;;;5067448;28;20082;-81
2022/07/14 01:53:28;;;;;;;2.28;1.30;;;21.80;79.70;;;;;;5062284;28;20031;-76
2022/07/14 01:55:54;;;;;;;1.85;1.30;;;21.70;80.00;;;;;;5051488;28;20053;-77
2022/07/14 01:58:19;;;;;;;3.13;1.73;;;21.70;80.20;;;;;;5079260;28;20067;-77
2022/07/14 02:01:39;;;;;;;3.47;1.60;;;21.70;80.30;;;;;;5061918;28;20027;-77
2022/07/14 02:03:30;;;;;;;2.25;1.52;;;21.70;80.60;;;;;;5064643;28;20035;-81
2022/07/14 02:05:56;;;;;;;3.88;1.63;;;21.70;80.80;;;;;;5050730;28;20450;-80
2022/07/14 02:08:21;;;;;;;4.85;1.70;;;21.70;81.00;;;;;;5049467;28;20060;-77
2022/07/14 02:13:31;;;;;;;2.38;1.40;;;21.70;81.40;;;;;;5060579;28;20524;-79
2022/07/14 02:15:56;;;;;;;2.58;1.35;;;21.70;81.80;;;;;;5059089;28;20025;-78
2022/07/14 02:18:22;;;;;;;1.92;1.30;;;21.60;81.80;;;;;;5065697;28;20527;-77
2022/07/14 02:20:48;;;;;;;2.53;1.20;;;21.60;82.10;;;;;;5063778;28;20021;-79
2022/07/14 02:23:13;;;;;;;2.78;1.80;;;21.60;82.50;;;;;;5053893;28;20025;-79
2022/07/14 02:25:38;;;;;;;4.47;2.45;;;21.50;82.70;;;;;;5067044;28;20112;-77
2022/07/14 02:28:04;;;;;;;2.92;1.65;;;21.50;83.00;;;;;;5060202;28;20057;-77
2022/07/14 02:30:30;;;;;;;1.88;1.40;;;21.40;83.20;;;;;;5070274;28;20043;-78
2022/07/14 02:32:55;;;;;;;2.08;1.27;;;21.40;83.40;;;;;;5037123;28;20029;-79
2022/07/14 02:35:23;;;;;;;5.13;1.48;;;21.40;83.60;;;;;;5062766;28;20028;-79
2022/07/14 02:37:49;;;;;;;2.15;1.40;;;21.20;84.10;;;;;;5048104;28;20222;-79
2022/07/14 02:40:14;;;;;;;4.18;1.35;;;21.20;84.20;;;;;;5065298;28;20025;-77
2022/07/14 02:42:40;;;;;;;3.95;1.73;;;21.20;84.30;;;;;;5047375;28;20542;-78
2022/07/14 02:45:06;;;;;;;1.67;1.17;;;21.20;84.50;;;;;;5060112;28;20036;-80
2022/07/14 02:47:31;;;;;;;3.85;1.30;;;21.20;84.50;;;;;;5054262;28;20044;-80
2022/07/14 02:49:57;;;;;;;3.42;1.52;;;21.10;84.60;;;;;;5066996;28;20386;-80
2022/07/14 02:52:22;;;;;;;3.22;1.15;;;21.10;84.60;;;;;;5047413;28;20032;-78
2022/07/14 02:54:48;;;;;;;2.47;1.38;;;21.10;84.80;;;;;;5050806;28;20115;-78
2022/07/14 02:57:13;;;;;;;3.08;1.63;;;21.10;84.90;;;;;;5065197;28;20047;-78
2022/07/14 02:59:42;;;;;;;1.70;1.25;;;21.10;84.90;;;;;;5068332;28;20060;-79
2022/07/14 03:02:08;;;;;;;3.05;1.65;;;21.00;85.00;;;;;;5041199;28;20033;-78
2022/07/14 03:04:34;;;;;;;1.70;1.40;;;21.00;85.10;;;;;;5066006;28;20032;-77
2022/07/14 03:06:59;;;;;;;2.92;1.48;;;20.90;85.40;;;;;;5047206;28;20082;-77
2022/07/14 03:09:26;;;;;;;2.78;1.48;;;20.90;85.60;;;;;;5057549;28;20041;-77
2022/07/14 03:11:51;;;;;;;3.55;1.60;;;20.90;86.00;;;;;;5062280;28;20509;-78
2022/07/14 03:14:17;;;;;;;5.47;1.80;;;20.80;86.00;;;;;;5050597;28;20028;-77
2022/07/14 03:16:42;;;;;;;3.38;1.90;;;20.80;86.20;;;;;;5050844;28;20116;-77
2022/07/14 03:19:08;;;;;;;2.28;1.58;;;20.70;86.60;;;;;;5070861;28;20029;-80
2022/07/14 03:21:33;;;;;;;1.92;1.20;;;20.60;87.10;;;;;;5056734;28;20077;-80
2022/07/14 03:23:59;;;;;;;2.42;1.40;;;20.60;87.40;;;;;;5057590;28;20036;-79
2022/07/14 03:26:24;;;;;;;3.53;1.88;;;20.60;87.80;;;;;;5075516;28;20075;-81
2022/07/14 03:28:50;;;;;;;1.90;1.20;;;20.50;88.20;;;;;;5046866;28;20044;-78
2022/07/14 03:31:16;;;;;;;1.75;1.20;;;20.50;88.40;;;;;;5054589;28;20032;-78
2022/07/14 03:33:41;;;;;;;2.33;1.30;;;20.50;88.30;;;;;;5067095;28;20036;-80
2022/07/14 03:36:07;;;;;;;2.22;1.10;;;20.50;88.30;;;;;;5063920;28;20029;-77
2022/07/14 03:38:32;;;;;;;3.00;1.30;;;20.50;88.10;;;;;;5059105;28;20533;-78
2022/07/14 03:41:01;;;;;;;3.03;1.38;;;20.50;88.30;;;;;;5055351;28;20150;-78
2022/07/14 03:43:26;;;;;;;4.38;1.70;;;20.50;88.20;;;;;;5056023;28;20029;-77
2022/07/14 03:45:52;;;;;;;3.90;1.10;;;20.50;88.10;;;;;;5038163;28;20031;-76
2022/07/14 03:48:17;;;;;;;2.15;1.48;;;20.50;88.50;;;;;;5052217;28;20041;-75
2022/07/14 03:50:43;;;;;;;1.65;0.82;;;20.40;88.30;;;;;;5073398;28;20029;-76
2022/07/14 03:53:08;;;;;;;2.08;1.05;;;20.40;88.20;;;;;;5066704;28;20047;-77
2022/07/14 03:55:34;;;;;;;1.92;1.05;;;20.30;88.50;;;;;;5050926;28;20032;-79
2022/07/14 03:58:00;;;;;;;2.33;0.90;;;20.30;87.90;;;;;;5069680;28;20060;-77
2022/07/14 04:00:26;;;;;;;3.10;0.90;;;20.20;88.10;;;;;;5057947;28;20036;-77
2022/07/14 04:02:51;;;;;;;1.20;0.60;;;20.20;88.50;;;;;;5079575;28;20559;-77
2022/07/14 04:05:17;;;;;;;3.35;1.15;;;20.20;88.50;;;;;;5053898;28;20500;-77
2022/07/14 04:07:42;;;;;;;1.33;0.85;;;20.30;88.50;;;;;;5045871;28;20474;-76
2022/07/14 04:10:08;;;;;;;2.33;1.10;;;20.40;88.30;;;;;;5044362;28;20024;-80
2022/07/14 04:12:33;;;;;;;2.25;1.08;;;20.40;88.40;;;;;;5039092;28;20695;-77
2022/07/14 04:14:59;;;;;;;4.68;0.82;;;20.40;88.20;;;;;;5059945;28;20028;-77
2022/07/14 04:17:26;;;;;;;2.58;1.23;;;20.40;88.30;;;;;;5063782;28;20028;-77
2022/07/14 04:19:51;;;;;;;1.02;0.70;;;20.50;88.40;;;;;;5069257;28;20696;-79
2022/07/14 04:22:16;;;;;;;3.80;1.00;;;20.50;88.00;;;;;;5053670;28;20032;-80
2022/07/14 04:24:42;;;;;;;1.48;0.98;;;20.50;88.10;;;;;;5041349;28;20025;-77
2022/07/14 04:27:08;;;;;;;1.35;0.93;;;20.50;87.60;;;;;;5058614;28;20052;-77
2022/07/14 04:29:33;;;;;;;3.35;0.95;;;20.40;88.00;;;;;;5059455;28;20086;-77
2022/07/14 04:31:59;;;;;;;3.90;1.08;;;20.50;88.00;;;;;;5059626;28;20024;-77
2022/07/14 04:34:24;;;;;;;4.45;1.13;;;20.40;87.50;;;;;;5073572;28;20033;-78
2022/07/14 04:36:50;;;;;;;4.68;1.10;;;20.40;87.40;;;;;;5047670;28;20024;-78
2022/07/14 04:39:15;;;;;;;2.35;0.70;;;20.30;87.60;;;;;;5071093;28;20037;-77
2022/07/14 04:41:41;;;;;;;1.60;0.70;;;20.20;87.10;;;;;;5048681;28;20059;-78
2022/07/14 04:44:06;;;;;;;2.92;0.63;;;20.20;87.00;;;;;;5053792;28;20106;-77
2022/07/14 04:46:32;;;;;;;2.53;0.85;;;20.20;87.00;;;;;;5058470;28;20079;-77
2022/07/14 04:54:25;;;;;;;1.98;1.02;;;20.40;85.90;;;;;;5067490;28;20043;-77
2022/07/14 04:56:51;;;;;;;2.25;1.00;;;20.30;86.10;;;;;;5064626;28;20227;-77
2022/07/14 04:59:16;;;;;;;1.85;0.75;;;20.40;86.20;;;;;;5068839;28;20463;-76
2022/07/14 05:01:42;;;;;;;2.55;0.60;;;20.50;85.50;;;;;;5067687;28;20434;-76
2022/07/14 05:04:08;;;;;;;1.27;0.90;;;20.40;85.40;;;;;;5050180;28;20054;-76
2022/07/14 05:06:33;;;;;;;3.03;0.70;;;20.40;85.70;;;;;;5068454;28;20032;-79
2022/07/14 05:08:59;;;;;;;2.08;0.88;;;20.40;85.60;;;;;;5039105;28;20536;-77
2022/07/14 05:11:25;;;;;;;3.65;0.80;;;20.50;85.10;;;;;;5056984;28;20063;-79
2022/07/14 05:13:53;;;;;;;3.97;0.90;;;20.50;84.90;;;;;;5061803;28;20060;-81
2022/07/14 05:16:18;;;;;;;2.30;0.82;;;20.40;84.40;;;;;;5069250;28;20028;-79
2022/07/14 05:18:44;;;;;;;2.35;0.60;;;20.30;84.90;;;;;;5052789;28;20539;-77
2022/07/14 05:21:09;;;;;;;1.95;0.85;;;20.20;85.50;;;;;;5070552;28;20032;-76
2022/07/14 05:23:35;;;;;;;3.58;0.80;;;20.00;86.90;;;;;;5060059;28;20111;-82
2022/07/14 05:26:00;;;;;;;1.73;0.77;;;20.00;87.50;;;;;;5068459;28;20041;-77
2022/07/14 05:28:26;;;;;;;2.08;0.70;;;20.10;87.30;;;;;;5064148;28;20041;-75
2022/07/14 05:30:57;;;;;;;2.22;0.63;;;20.10;87.20;;;;;;5063424;28;20030;-80
2022/07/14 05:33:22;;;;;;;7.60;1.00;;;20.20;86.80;;;;;;5072085;28;20021;-80
2022/07/14 05:35:48;;;;;;;5.88;1.00;;;20.20;86.40;;;;;;5067738;28;20033;-80
2022/07/14 05:38:13;;;;;;;5.72;0.98;;;20.30;86.30;;;;;;5068274;28;20454;-79
2022/07/14 05:40:39;;;;;;;3.65;0.90;;;20.20;85.10;;;;;;5069577;28;20040;-77
2022/07/14 05:43:04;;;;;;;4.00;1.17;;;20.20;84.70;;;;;;5070564;28;20503;-78
2022/07/14 05:45:30;;;;;;;3.42;0.95;;;20.20;84.30;;;;;;5071046;28;20028;-81
2022/07/14 05:47:55;;;;;;;7.90;1.58;;;20.30;83.80;;;;;;5053096;28;20044;-80
2022/07/14 05:50:21;;;;;;;4.20;1.10;;;20.30;82.80;;;;;;5069850;28;20116;-79
2022/07/14 05:52:46;;;;;;;9.48;1.20;;;20.20;83.70;;;;;;5053184;28;20031;-77
2022/07/14 05:55:12;;;;;;;7.80;1.52;;;20.00;84.80;;;;;;5053606;28;20061;-77
2022/07/14 05:57:38;;;;;;;7.43;1.30;;;20.10;85.50;;;;;;5052381;28;20547;-76
2022/07/14 06:00:05;;;;;;;9.32;1.40;;;20.10;85.90;;;;;;5070643;28;20035;-77
2022/07/14 06:02:30;;;;;;;6.05;1.10;;;20.20;86.30;;;;;;5052771;28;20032;-80
2022/07/14 06:04:56;;;;;;;5.35;1.65;;;20.20;85.70;;;;;;5071688;28;20028;-79
2022/07/14 06:07:21;;;;;;;7.25;1.98;;;20.20;85.60;;;;;;5070120;28;20071;-81
2022/07/14 06:09:49;;;;;;;5.60;0.95;;;20.20;86.10;;;;;;5053151;28;20033;-78
2022/07/14 06:12:15;;;;;;;7.55;1.58;;;20.10;87.10;;;;;;5052904;28;20048;-83
2022/07/14 06:14:41;;;;;;;5.22;1.00;;;20.20;87.40;;;;;;5070250;28;20480;-80
2022/07/14 06:17:06;;;;;;;9.63;1.67;;;20.20;86.40;;;;;;5070055;28;20024;-78
2022/07/14 06:19:32;;;;;;;6.45;1.35;;;20.30;87.10;;;;;;5070630;28;20035;-78
2022/07/14 06:21:57;;;;;;;3.28;0.80;;;20.30;86.90;;;;;;5070093;28;20474;-77
2022/07/14 06:24:23;;;;;;;7.45;1.70;;;20.30;87.10;;;;;;5052444;28;20068;-79
2022/07/14 06:26:48;;;;;;;8.35;1.83;;;20.30;87.60;;;;;;5070085;28;20055;-80
2022/07/14 06:29:14;;;;;;;9.25;1.58;;;20.40;87.40;;;;;;5052834;28;20119;-78
2022/07/14 06:31:39;;;;;;;8.65;1.15;;;20.50;87.30;;;;;;5070013;28;20036;-81
2022/07/14 06:34:05;;;;;;;4.90;1.58;;;20.60;87.20;;;;;;5070718;28;20441;-84
2022/07/14 06:36:31;;;;;;;8.15;1.67;;;20.70;86.60;;;;;;5051214;28;20025;-77
2022/07/14 06:38:58;;;;;;;5.20;1.67;;;20.70;86.40;;;;;;5052478;28;20071;-78
2022/07/14 06:41:24;;;;;;;5.65;1.20;;;20.60;86.50;;;;;;5052114;28;20115;-81
2022/07/14 06:43:49;;;;;;;5.43;1.08;;;20.60;87.10;;;;;;5052011;28;20096;-77
2022/07/14 06:46:16;;;;;;;7.30;1.38;;;20.60;86.60;;;;;;5051822;28;20031;-77
2022/07/14 06:48:42;;;;;;;8.13;1.67;;;20.50;87.60;;;;;;5069385;28;20103;-78
2022/07/14 06:51:08;;;;;;;3.03;1.08;;;20.50;86.50;;;;;;5070258;28;20032;-77
2022/07/14 06:53:33;;;;;;;9.25;2.25;;;20.60;87.60;;;;;;5051511;28;20097;-79
2022/07/14 06:55:59;;;;;;;7.65;1.23;;;20.70;86.70;;;;;;5051859;28;20032;-80
2022/07/14 06:58:24;;;;;;;10.02;1.15;;;20.70;87.00;;;;;;5069828;28;20571;-77
2022/07/14 07:00:50;;;;;;;7.70;1.25;;;20.70;86.90;;;;;;5051777;28;20028;-79
2022/07/14 07:03:15;;;;;;;8.65;0.98;;;20.70;86.70;;;;;;5052563;28;20025;-78
2022/07/14 07:08:25;;;;;;;7.50;1.10;;;20.80;85.50;;;;;;5069596;28;20083;-81
2022/07/14 07:10:51;;;;;;;6.75;1.27;;;20.70;85.70;;;;;;5069865;28;20469;-78
2022/07/14 07:13:17;;;;;;;5.30;1.23;;;20.80;86.20;;;;;;5051616;28;20035;-78
2022/07/14 07:15:42;;;;;;;8.55;1.58;;;20.80;86.10;;;;;;5069521;28;20587;-77
2022/07/14 07:18:08;;;;;;;5.05;1.10;;;20.90;86.20;;;;;;5070286;28;20044;-77
2022/07/14 07:20:35;;;;;;;7.90;1.10;;;21.00;86.10;;;;;;5071622;28;20056;-81
2022/07/14 07:23:01;;;;;;;5.30;1.73;;;21.00;85.90;;;;;;5071319;28;20104;-77
2022/07/14 07:25:27;;;;;;;7.32;1.20;;;20.90;85.80;;;;;;5072006;28;20035;-77
2022/07/14 07:27:52;;;;;;;6.05;1.73;;;21.00;85.80;;;;;;5071555;28;20489;-81
2022/07/14 07:30:18;;;;;;;6.85;1.60;;;20.90;86.10;;;;;;5070154;28;20071;-78
2022/07/14 07:32:44;;;;;;;6.85;1.50;;;21.00;86.30;;;;;;5069233;28;20106;-78
2022/07/14 07:35:09;;;;;;;8.57;1.50;;;21.20;86.10;;;;;;5069782;28;20024;-79
2022/07/14 07:37:35;;;;;;;4.13;1.02;;;21.20;85.60;;;;;;5069762;28;20039;-81
2022/07/14 07:40:00;;;;;;;5.13;1.02;;;21.30;85.60;;;;;;5051252;28;20398;-78
2022/07/14 07:42:26;;;;;;;9.77;1.05;;;21.50;86.00;;;;;;5069591;28;20075;-78
2022/07/14 07:44:53;;;;;;;7.82;1.17;;;21.60;86.30;;;;;;5069693;28;20661;-78
2022/07/14 07:47:19;;;;;;;7.72;1.45;;;21.70;84.80;;;;;;5069407;28;20492;-82
2022/07/14 07:49:44;;;;;;;8.63;2.08;;;21.80;84.50;;;;;;5069864;28;20112;-81
2022/07/14 07:52:10;;;;;;;5.95;1.20;;;21.80;84.60;;;;;;5069558;28;20029;-78
2022/07/14 07:54:36;;;;;;;5.20;1.08;;;21.80;85.10;;;;;;5051244;28;20025;-81
2022/07/14 07:57:01;;;;;;;6.45;1.42;;;21.60;85.00;;;;;;5068965;28;20047;-77
2022/07/14 07:59:27;;;;;;;6.47;1.10;;;21.50;85.40;;;;;;5051148;28;20524;-77
2022/07/14 08:01:53;;;;;;;9.63;2.00;;;21.40;84.90;;;;;;5069474;28;20518;-77
2022/07/14 08:04:18;;;;;;;10.77;2.63;;;21.40;85.70;;;;;;5069613;28;20585;-80
2022/07/14 08:06:43;;;;;;;4.10;1.00;;;21.30;85.00;;;;;;5050000;28;20032;-80
2022/07/14 08:09:12;;;;;;;9.63;1.63;;;21.40;84.80;;;;;;5070026;28;20025;-80
2022/07/14 08:11:42;;;;;;;8.25;2.03;;;21.60;85.10;;;;;;5050261;28;20719;-77
2022/07/14 08:16:57;;;;;;;6.78;1.10;;;21.70;83.40;;;;;;5061787;28;20078;-82
2022/07/14 08:19:23;;;;;;;5.55;1.15;;;21.60;84.10;;;;;;5051150;28;20451;-77
2022/07/14 08:21:48;;;;;;;5.85;1.35;;;21.70;84.60;;;;;;5051202;28;20067;-77
2022/07/14 08:24:14;;;;;;;4.50;1.33;;;21.70;84.10;;;;;;5069103;28;20039;-77
2022/07/14 08:26:40;;;;;;;5.03;1.13;;;21.80;83.10;;;;;;5068228;28;20036;-78
2022/07/14 08:29:06;;;;;;;5.65;1.38;;;21.90;82.40;;;;;;5051492;28;20029;-78
2022/07/14 08:31:32;;;;;;;6.65;1.17;;;22.00;82.50;;;;;;5050723;28;20039;-78
2022/07/14 08:33:57;;;;;;;4.88;1.20;;;22.00;82.30;;;;;;5051349;28;20418;-82
2022/07/14 08:36:23;;;;;;;6.65;1.38;;;22.10;81.50;;;;;;5068987;28;20104;-80
2022/07/14 08:38:48;;;;;;;6.03;1.20;;;22.20;82.90;;;;;;5071998;28;20036;-78
2022/07/14 08:41:14;;;;;;;9.95;1.63;;;22.50;81.10;;;;;;5071658;28;20478;-78
2022/07/14 08:43:40;;;;;;;5.32;1.65;;;22.60;80.50;;;;;;5072821;28;20020;-78
2022/07/14 08:46:05;;;;;;;4.80;1.35;;;22.70;80.90;;;;;;5072237;28;20029;-81
2022/07/14 08:48:33;;;;;;;5.40;1.02;;;22.80;80.20;;;;;;5054337;28;20414;-78
2022/07/14 08:50:59;;;;;;;4.47;1.00;;;22.70;79.90;;;;;;5071974;28;20044;-82
2022/07/14 08:53:26;;;;;;;7.25;1.90;;;22.80;80.90;;;;;;5072488;28;20470;-84
2022/07/14 08:55:52;;;;;;;5.05;1.02;;;22.80;80.40;;;;;;5053982;28;20024;-83
2022/07/14 08:58:17;;;;;;;6.47;1.95;;;22.90;80.80;;;;;;5054251;28;20111;-79
2022/07/14 09:00:43;;;;;;;5.45;0.98;;;22.90;80.80;;;;;;5071251;28;20032;-81
2022/07/14 09:03:09;;;;;;;6.80;1.75;;;22.80;81.10;;;;;;5071988;28;20032;-78
2022/07/14 09:05:41;;;;;;;4.50;0.85;;;22.80;80.80;;;;;;5071570;28;20028;-83
2022/07/14 09:08:06;;;;;;;5.55;1.65;;;22.90;80.70;;;;;;5071793;28;20036;-79
2022/07/14 09:10:32;;;;;;;6.40;1.70;;;22.90;82.10;;;;;;5053582;28;20028;-77
2022/07/14 09:13:19;;;;;;;4.78;1.48;;;23.10;80.90;;;;;;5053958;28;20028;-78
2022/07/14 09:15:46;;;;;;;3.72;1.15;;;23.30;79.40;;;;;;5051659;28;20390;-78
2022/07/14 09:18:25;;;;;;;4.30;1.05;;;23.50;80.70;;;;;;5071406;28;20033;-77
2022/07/14 09:20:52;;;;;;;9.23;1.67;;;23.60;77.80;;;;;;5054140;28;20028;-78
2022/07/14 09:23:30;;;;;;;4.68;1.40;;;23.70;78.60;;;;;;5054051;28;20445;-77
2022/07/14 09:26:10;;;;;;;11.60;1.35;;;23.80;77.30;;;;;;5052972;28;20115;-77
2022/07/14 09:28:40;;;;;;;6.68;1.15;;;23.90;77.50;;;;;;5053600;28;20039;-81
2022/07/14 09:31:27;;;;;;;5.22;1.20;;;23.80;77.90;;;;;;5053103;28;20406;-78
2022/07/14 09:34:06;;;;;;;7.28;1.55;;;23.70;77.60;;;;;;5033667;28;20033;-78
2022/07/14 09:36:35;;;;;;;3.85;1.25;;;23.60;78.20;;;;;;5063475;28;20402;-78
2022/07/14 09:39:09;;;;;;;7.38;1.27;;;23.50;78.80;;;;;;5053500;28;20128;-78
2022/07/14 09:41:48;;;;;;;8.35;1.83;;;23.40;79.30;;;;;;5053146;28;20465;-78
2022/07/14 09:44:19;;;;;;;5.43;1.42;;;23.50;78.90;;;;;;5071305;28;20107;-78
2022/07/14 09:46:54;;;;;;;5.28;1.40;;;23.50;79.10;;;;;;5070115;28;20032;-80
2022/07/14 09:49:22;;;;;;;7.90;2.05;;;23.60;81.60;;;;;;5070137;28;20033;-78
2022/07/14 09:52:02;;;;;;;7.43;2.00;;;23.70;80.50;;;;;;5071246;28;20477;-78
2022/07/14 09:54:37;;;;;;;4.20;1.63;;;23.90;78.60;;;;;;5070855;28;20033;-78
2022/07/14 09:57:10;;;;;;;8.93;1.52;;;24.10;80.20;;;;;;5070779;28;20122;-78
2022/07/14 09:59:46;;;;;;;4.95;1.63;;;24.40;77.20;;;;;;5053114;28;20093;-78
2022/07/14 10:02:18;;;;;;;7.15;1.55;;;24.60;77.50;;;;;;5052994;28;20029;-78
2022/07/14 10:04:44;;;;;;;8.05;1.73;;;24.70;77.80;;;;;;5052853;28;20157;-82
2022/07/14 10:07:12;;;;;;;12.27;2.42;;;24.90;75.20;;;;;;5052161;28;20474;-79
2022/07/14 10:09:43;;;;;;;6.55;1.48;;;25.10;76.40;;;;;;5071063;28;20546;-78
2022/07/14 10:12:09;;;;;;;6.70;2.00;;;25.20;74.90;;;;;;5071092;28;20474;-79
2022/07/14 10:14:36;;;;;;;5.22;1.67;;;25.20;74.40;;;;;;5070983;28;20509;-78
2022/07/14 10:17:02;;;;;;;4.65;1.45;;;25.30;74.50;;;;;;5051571;28;20036;-78
2022/07/14 10:19:28;;;;;;;6.68;1.60;;;25.40;75.10;;;;;;5052756;28;20028;-82
2022/07/14 10:21:55;;;;;;;5.30;1.55;;;25.50;74.00;;;;;;5052480;28;20063;-77
2022/07/14 10:24:23;;;;;;;3.88;1.27;;;25.70;73.50;;;;;;5052522;28;20043;-79
2022/07/14 10:26:48;;;;;;;6.22;1.80;;;25.90;72.30;;;;;;5069383;28;20497;-78
2022/07/14 10:29:14;;;;;;;3.90;1.00;;;26.10;71.10;;;;;;5071181;28;20025;-78
2022/07/14 10:32:00;;;;;;;6.88;1.50;;;26.30;71.30;;;;;;5069761;28;20029;-78
2022/07/14 10:34:49;;;;;;;4.97;1.58;;;26.40;70.50;;;;;;5070734;28;20036;-82
2022/07/14 10:37:29;;;;;;;4.25;1.08;;;26.40;70.80;;;;;;5069798;28;20368;-76
2022/07/14 10:40:20;;;;;;;5.40;1.02;;;26.50;71.30;;;;;;5070545;28;20437;-82
2022/07/14 10:42:52;;;;;;;5.05;1.15;;;26.60;70.90;;;;;;5052288;28;20036;-81
2022/07/14 10:45:18;;;;;;;6.53;1.58;;;26.80;70.10;;;;;;5070026;28;20032;-78
2022/07/14 10:47:51;;;;;;;8.25;1.17;;;26.80;69.00;;;;;;5069780;28;20078;-78
2022/07/14 10:50:20;;;;;;;6.25;1.50;;;26.70;69.80;;;;;;5052941;28;20039;-78
2022/07/14 10:52:56;;;;;;;6.85;1.25;;;26.50;69.40;;;;;;5069807;28;20034;-82
2022/07/14 10:55:34;;;;;;;4.45;0.85;;;26.60;68.80;;;;;;5069150;28;20065;-83
2022/07/14 10:57:59;;;;;;;3.45;1.35;;;26.70;69.90;;;;;;5070278;28;20629;-80
2022/07/14 11:00:43;;;;;;;4.25;1.17;;;26.80;68.90;;;;;;5069950;28;20035;-83
2022/07/14 11:03:21;;;;;;;5.25;1.50;;;26.80;69.10;;;;;;5051691;28;20032;-78
2022/07/14 11:06:03;;;;;;;3.53;1.38;;;26.70;68.70;;;;;;5068820;28;20028;-81
2022/07/14 11:08:30;;;;;;;6.40;1.60;;;26.50;69.00;;;;;;5051694;28;20033;-76
2022/07/14 11:10:57;;;;;;;3.95;1.00;;;26.50;70.00;;;;;;5051704;28;20037;-78
2022/07/14 11:13:23;;;;;;;11.60;1.58;;;26.60;70.50;;;;;;5070250;28;20032;-79
2022/07/14 11:15:54;;;;;;;3.05;1.02;;;26.70;69.10;;;;;;5069334;28;20039;-82
2022/07/14 11:18:29;;;;;;;6.03;1.25;;;26.80;69.00;;;;;;5051998;28;20082;-79
2022/07/14 11:21:16;;;;;;;6.43;1.20;;;26.80;70.40;;;;;;5069741;28;20021;-78
2022/07/14 11:23:57;;;;;;;4.10;1.08;;;26.90;68.60;;;;;;5069437;28;20493;-77
2022/07/14 11:26:32;;;;;;;8.43;1.55;;;26.90;68.40;;;;;;5050872;28;20055;-78
2022/07/14 11:28:59;;;;;;;7.35;1.42;;;26.80;68.20;;;;;;5069799;28;20128;-79
2022/07/14 11:31:25;;;;;;;6.63;1.15;;;26.60;67.90;;;;;;5051389;28;20094;-79
2022/07/14 11:36:58;;;;;;;6.30;1.30;;;26.20;69.60;;;;;;5069344;28;20105;-80
2022/07/14 11:39:31;;;;;;;6.95;1.45;;;26.20;70.70;;;;;;5069738;28;20032;-78
2022/07/14 11:42:06;;;;;;;4.35;1.23;;;26.30;69.50;;;;;;5051029;28;20033;-78
2022/07/14 11:44:35;;;;;;;3.38;1.00;;;26.40;69.90;;;;;;5051842;28;20028;-79
2022/07/14 11:47:02;;;;;;;4.18;1.00;;;26.60;68.10;;;;;;5051184;28;20052;-77
2022/07/14 11:49:29;;;;;;;2.78;0.70;;;26.80;67.90;;;;;;5069011;28;20537;-77
2022/07/14 11:51:55;;;;;;;4.25;1.02;;;27.00;68.10;;;;;;5069692;28;20109;-81
2022/07/14 11:54:21;;;;;;;5.50;1.30;;;27.20;68.60;;;;;;5069804;28;20410;-79
2022/07/14 11:56:48;;;;;;;4.68;1.45;;;27.30;66.90;;;;;;5068144;28;20066;-78
2022/07/14 11:59:17;;;;;;;2.70;0.88;;;27.40;69.40;;;;;;5069373;28;20020;-80
2022/07/14 12:01:44;;;;;;;5.13;1.05;;;27.40;67.30;;;;;;5067914;28;20374;-78
2022/07/14 12:04:15;;;;;;;6.05;1.40;;;27.40;66.80;;;;;;5069564;28;20020;-78
2022/07/14 12:06:44;;;;;;;3.92;1.33;;;27.40;67.60;;;;;;5068705;28;20723;-78
2022/07/14 12:09:10;;;;;;;7.25;1.45;;;27.40;67.40;;;;;;5051834;28;20095;-78
2022/07/14 12:11:36;;;;;;;6.00;1.55;;;27.50;66.40;;;;;;5070324;28;20103;-81
2022/07/14 12:14:02;;;;;;;3.67;1.27;;;27.60;66.90;;;;;;5055576;28;20028;-83
2022/07/14 12:16:41;;;;;;;5.97;1.77;;;27.60;65.00;;;;;;5054152;28;20475;-78
2022/07/14 12:19:07;;;;;;;4.80;1.50;;;27.60;66.30;;;;;;5073589;28;20036;-78
2022/07/14 12:21:35;;;;;;;7.10;1.60;;;27.40;66.00;;;;;;5073167;28;20036;-79
2022/07/14 12:24:02;;;;;;;8.10;1.70;;;27.20;65.80;;;;;;5073257;28;20039;-82
2022/07/14 12:26:29;;;;;;;8.02;1.60;;;26.90;66.60;;;;;;5054251;28;20468;-79
2022/07/14 12:28:56;;;;;;;4.70;1.20;;;26.80;67.20;;;;;;5055178;28;20056;-79
2022/07/14 12:31:22;;;;;;;6.93;1.20;;;26.70;68.00;;;;;;5072331;28;20037;-78
2022/07/14 12:33:51;;;;;;;5.15;1.23;;;26.50;68.60;;;;;;5073010;28;20106;-77
2022/07/14 12:36:23;;;;;;;4.63;1.17;;;26.60;68.50;;;;;;5072330;28;20040;-81
2022/07/14 12:38:49;;;;;;;5.93;1.17;;;26.60;68.20;;;;;;5054570;28;20633;-78
2022/07/14 12:41:19;;;;;;;4.13;1.15;;;26.70;68.70;;;;;;5054684;28;20391;-81
2022/07/14 12:43:45;;;;;;;4.40;1.10;;;26.70;68.20;;;;;;5055000;28;20024;-78
2022/07/14 12:46:17;;;;;;;6.45;1.83;;;26.70;68.20;;;;;;5072096;28;20040;-78
2022/07/14 12:48:54;;;;;;;9.07;1.75;;;26.70;67.90;;;;;;5054455;28;20044;-83
2022/07/14 12:51:37;;;;;;;2.20;1.10;;;26.60;68.00;;;;;;5072451;28;20446;-79
2022/07/14 12:54:18;;;;;;;8.00;1.23;;;26.60;67.30;;;;;;5072902;28;20033;-84
2022/07/14 12:56:43;;;;;;;7.53;1.40;;;26.60;67.90;;;;;;5071283;28;20032;-78
2022/07/14 12:59:11;;;;;;;5.38;1.10;;;26.60;68.40;;;;;;5072833;28;20047;-79
2022/07/14 13:01:52;;;;;;;3.65;1.30;;;26.40;68.30;;;;;;5071498;28;20033;-83
2022/07/14 13:04:32;;;;;;;3.63;1.10;;;26.60;69.80;;;;;;5069523;28;20454;-79